Couvin, Belgium
Current Conditions -  °F | °C
As of 1:17 PM on Monday 26 Jan 2015 (Local Time) from EBFS Reporting Station
Drizzle Drizzle  
Wind Chill: 34°   Ceiling: 200
Heat Index: 39°   Visibility: 1.2mi
Dew Point: 39°   Wind: 8mph
Humidity: 100%   Direction: 240°WSW
Pressure: 30.12"   Gusts: NA
Location:  50.05°N, 4.49°E
Report Text: EBFS 261217Z 24007KT 2000 -DZ FEW001 BKN002 BKN003 04/04 Q1020 AMB AMB TEMPO RED
Loading
Personal Weather Stations






























Interactive Weather Map New forecast layout! Learn more

10-Day Weather Forecast

Advertisements
Track Severe Weather on mobile